Overview Statistics Trail Chart Weather Telemetry Raw packets
 

This is the latest recevied weather packets stored in our database for station/object OM6ACB-6. If no packets are shown the sender has not sent any weather packets the latest 10 day(s).

<< 43 44 45 46 47 48 49 >>
Time Temp. Humidity Pressure Rain* Wind** Luminosity Snow
1787997072 25.56° C 20% 1021.5 hPa 0 mm - - -
1787996476 25.56° C 20% 1021.5 hPa 0 mm - - -
1787995871 23.33° C 21% 1021.2 hPa 0 mm - - -
1787995271 23.89° C 21% 1021.3 hPa 0 mm - - -
1787994670 23.33° C 21% 1021.3 hPa 0 mm - - -
1787994070 20.56° C 22% 1020.7 hPa 0 mm - - -
1787993470 20.56° C 22% 1020.7 hPa 0 mm - - -
1787992870 20° C 23% 1020.6 hPa 0 mm - - -
1787992269 20° C 23% 1020.5 hPa 0 mm - - -
1787991669 19.44° C 23% 1020.3 hPa 0 mm - - -
1787991069 19.44° C 23% 1020.2 hPa 0 mm - - -
1787990468 18.89° C 23% 1020 hPa 0 mm - - -
1787989868 19.44° C 23% 1019.8 hPa 0 mm - - -
1787989274 19.44° C 23% 1019.7 hPa 0 mm - - -
1787988667 20.56° C 22% 1019.7 hPa 0 mm - - -
1787988067 20.56° C 22% 1019.6 hPa 0 mm - - -
1787987467 22.22° C 21% 1019.8 hPa 0 mm - - -
1787986867 21.67° C 22% 1019.5 hPa 0 mm - - -
1787986266 20° C 23% 1019.1 hPa 0 mm - - -
1787985666 20.56° C 22% 1019.3 hPa 0 mm - - -
1787985066 20° C 23% 1019.2 hPa 0 mm - - -
1787984465 19.44° C 23% 1019.1 hPa 0 mm - - -
1787983865 19.44° C 23% 1018.9 hPa 0 mm - - -
1787983265 18.33° C 23% 1018.5 hPa 0 mm - - -
1787982665 19.44° C 23% 1018.6 hPa 0 mm - - -

* Rain latest hour (hover to see other rain measurements)
** Current wind speed in m/s (hover to see current wind gust speed)